createdAt,value
2023-04-02T00:01:37.964Z,7.33
2023-04-02T00:04:16.661Z,8.30
2023-04-02T00:06:47.372Z,8.97
2023-04-02T00:09:24.888Z,8.53
2023-04-02T00:11:54.805Z,8.63
2023-04-02T00:14:27.326Z,8.67
2023-04-02T00:16:56.589Z,9.47
2023-04-02T00:19:29.557Z,8.87
2023-04-02T00:21:57.655Z,9.40
2023-04-02T00:24:25.495Z,9.87
2023-04-02T00:26:54.741Z,10.10
2023-04-02T00:29:24.187Z,10.33
2023-04-02T00:31:53.931Z,10.30
2023-04-02T00:34:23.834Z,10.40
2023-04-02T00:36:52.096Z,9.97
2023-04-02T00:39:22.945Z,10.53
2023-04-02T00:41:54.679Z,11.00
2023-04-02T00:44:24.141Z,10.03
2023-04-02T00:46:52.531Z,10.97
2023-04-02T00:49:23.925Z,10.60
2023-04-02T00:51:54.500Z,13.10
2023-04-02T00:54:25.724Z,10.70
2023-04-02T00:56:55.399Z,12.10
2023-04-02T00:59:27.916Z,11.47
2023-04-02T01:02:01.850Z,11.50
2023-04-02T01:04:34.646Z,13.97
2023-04-02T01:07:06.524Z,11.60
2023-04-02T01:10:09.204Z,12.00
2023-04-02T01:12:48.906Z,12.07
2023-04-02T01:15:21.031Z,12.83
2023-04-02T01:17:59.878Z,11.93
2023-04-02T01:21:15.413Z,11.83
2023-04-02T01:23:54.342Z,10.30
2023-04-02T01:26:29.280Z,10.63
2023-04-02T01:29:03.125Z,11.37
2023-04-02T01:31:33.107Z,11.33
2023-04-02T01:34:01.388Z,12.03
2023-04-02T01:36:36.420Z,11.50
2023-04-02T01:39:08.626Z,12.57
2023-04-02T01:41:43.502Z,11.93
2023-04-02T01:44:15.936Z,11.73
2023-04-02T01:46:44.896Z,12.07
2023-04-02T01:49:15.461Z,11.53
2023-04-02T01:51:45.454Z,12.20
2023-04-02T01:54:14.926Z,12.13
2023-04-02T01:56:43.590Z,12.10
2023-04-02T01:59:12.880Z,11.30
2023-04-02T02:01:48.511Z,11.37
2023-04-02T02:04:17.230Z,11.47
2023-04-02T02:06:45.675Z,11.33
2023-04-02T02:09:17.037Z,10.90
2023-04-02T02:11:44.957Z,10.37
2023-04-02T02:14:18.644Z,9.93
2023-04-02T02:16:47.552Z,9.57
2023-04-02T02:19:22.804Z,10.17
2023-04-02T02:21:52.701Z,9.83
2023-04-02T02:24:22.288Z,8.90
2023-04-02T02:26:52.768Z,9.27
2023-04-02T02:29:23.426Z,8.67
2023-04-02T02:31:54.242Z,7.97
2023-04-02T02:34:24.277Z,8.53
2023-04-02T02:36:55.350Z,9.03
2023-04-02T02:39:26.293Z,7.73
2023-04-02T02:41:57.143Z,8.70
2023-04-02T02:44:28.670Z,8.50
2023-04-02T02:46:59.334Z,8.23
2023-04-02T02:49:28.718Z,7.67
2023-04-02T02:52:00.212Z,7.47
2023-04-02T02:54:28.733Z,8.10
2023-04-02T02:57:01.783Z,8.07
2023-04-02T02:59:32.014Z,8.00
2023-04-02T03:02:01.212Z,7.77
2023-04-02T03:04:30.609Z,8.07
2023-04-02T03:06:59.352Z,7.50
2023-04-02T03:09:35.395Z,7.90
2023-04-02T03:12:08.616Z,7.20
2023-04-02T03:14:41.405Z,7.80
2023-04-02T03:17:14.053Z,7.03
2023-04-02T03:19:45.804Z,6.57
2023-04-02T03:22:17.187Z,7.03
2023-04-02T03:24:50.368Z,6.57
2023-04-02T03:27:21.888Z,6.67
2023-04-02T03:30:05.835Z,6.83
2023-04-02T03:32:37.066Z,6.80
2023-04-02T03:35:11.248Z,6.90
2023-04-02T03:37:42.079Z,6.23
2023-04-02T03:40:15.768Z,6.37
2023-04-02T03:42:46.811Z,6.40
2023-04-02T03:45:19.398Z,6.43
2023-04-02T03:47:52.035Z,6.67
2023-04-02T03:50:23.010Z,6.10
2023-04-02T03:52:51.055Z,6.10
2023-04-02T03:55:21.482Z,5.90
2023-04-02T03:57:55.220Z,5.77
2023-04-02T04:00:28.429Z,5.10
2023-04-02T04:02:59.970Z,5.20
2023-04-02T04:05:30.493Z,5.10
2023-04-02T04:08:01.987Z,4.83
2023-04-02T04:10:30.738Z,5.53
2023-04-02T04:13:04.298Z,5.27
2023-04-02T04:15:36.462Z,5.60
2023-04-02T04:18:13.023Z,5.00
2023-04-02T04:20:46.009Z,5.07
2023-04-02T04:23:19.887Z,5.17
2023-04-02T04:25:49.448Z,5.43
2023-04-02T04:28:24.278Z,4.43
2023-04-02T04:30:59.956Z,5.23
2023-04-02T04:33:34.667Z,3.77
2023-04-02T04:36:03.729Z,5.40
2023-04-02T04:38:34.336Z,4.57
2023-04-02T04:41:07.094Z,3.90
2023-04-02T04:43:42.537Z,4.40
2023-04-02T04:46:15.864Z,4.17
2023-04-02T04:48:51.469Z,4.20
2023-04-02T04:51:21.792Z,4.20
2023-04-02T04:53:51.518Z,4.13
2023-04-02T04:56:22.431Z,4.20
2023-04-02T04:58:52.809Z,4.70
2023-04-02T05:01:25.531Z,4.43
2023-04-02T05:03:57.353Z,4.43
2023-04-02T05:06:35.382Z,4.33
2023-04-02T05:09:07.471Z,3.93
2023-04-02T05:11:39.418Z,3.70
2023-04-02T05:14:09.359Z,3.90
2023-04-02T05:16:41.846Z,3.83
2023-04-02T05:19:12.300Z,4.27
2023-04-02T05:21:42.773Z,3.37
2023-04-02T05:24:30.155Z,3.30
2023-04-02T05:27:01.299Z,3.43
2023-04-02T05:29:32.762Z,3.43
2023-04-02T05:32:04.039Z,3.00
2023-04-02T05:34:34.635Z,3.20
2023-04-02T05:37:03.267Z,3.10
2023-04-02T05:39:32.763Z,4.10
2023-04-02T05:42:02.637Z,3.80
2023-04-02T05:44:32.497Z,3.33
2023-04-02T05:47:03.422Z,3.13
2023-04-02T05:49:38.961Z,3.23
2023-04-02T05:52:08.236Z,3.33
2023-04-02T05:54:40.180Z,3.57
2023-04-02T05:57:11.532Z,3.50
2023-04-02T05:59:43.356Z,3.27
2023-04-02T06:02:19.175Z,3.93
2023-04-02T06:04:54.357Z,3.00
2023-04-02T06:07:24.028Z,3.43
2023-04-02T06:09:54.385Z,3.40
2023-04-02T06:14:57.460Z,5.43
2023-04-02T06:17:27.409Z,3.70
2023-04-02T06:19:56.074Z,3.13
2023-04-02T06:22:26.374Z,3.47
2023-04-02T06:24:59.055Z,3.67
2023-04-02T06:27:28.031Z,3.50
2023-04-02T06:29:58.964Z,3.87
2023-04-02T06:32:28.396Z,3.50
2023-04-02T06:34:56.486Z,4.03
2023-04-02T06:37:29.294Z,3.60
2023-04-02T06:39:57.789Z,3.20
2023-04-02T06:42:28.401Z,3.80
2023-04-02T06:44:56.432Z,3.70
2023-04-02T06:47:31.929Z,4.30
2023-04-02T06:50:04.103Z,3.80
2023-04-02T06:52:36.107Z,5.63
2023-04-02T06:55:09.078Z,4.37
2023-04-02T06:57:36.975Z,5.77
2023-04-02T07:00:05.969Z,6.37
2023-04-02T07:02:36.876Z,4.27
2023-04-02T07:05:10.013Z,3.90
2023-04-02T07:07:37.917Z,4.00
2023-04-02T07:10:06.981Z,3.80
2023-04-02T07:12:34.793Z,4.37
2023-04-02T07:15:02.592Z,4.43
2023-04-02T07:17:30.546Z,4.00
2023-04-02T07:19:59.948Z,4.00
2023-04-02T07:22:27.898Z,4.67
2023-04-02T07:24:55.672Z,3.93
2023-04-02T07:27:23.383Z,4.53
2023-04-02T07:29:51.142Z,4.33
2023-04-02T07:32:19.532Z,4.40
2023-04-02T07:34:47.461Z,4.63
2023-04-02T07:37:16.560Z,4.17
2023-04-02T07:39:44.341Z,4.73
2023-04-02T07:42:12.090Z,4.50
2023-04-02T07:44:39.954Z,4.10
2023-04-02T07:47:08.656Z,4.40
2023-04-02T07:49:36.400Z,6.80
2023-04-02T07:52:04.146Z,5.70
2023-04-02T07:54:33.252Z,5.70
2023-04-02T07:57:00.962Z,4.90
2023-04-02T07:59:28.726Z,4.90
2023-04-02T08:01:56.453Z,5.10
2023-04-02T08:04:24.383Z,4.30
2023-04-02T08:06:52.912Z,5.00
2023-04-02T08:09:20.863Z,5.20
2023-04-02T08:11:50.052Z,4.93
2023-04-02T08:14:17.844Z,4.73
2023-04-02T08:16:47.711Z,4.60
2023-04-02T08:19:15.690Z,5.17
2023-04-02T08:21:43.603Z,4.47
2023-04-02T08:24:11.539Z,4.93
2023-04-02T08:26:39.334Z,4.43
2023-04-02T08:29:08.971Z,4.10
2023-04-02T08:31:36.765Z,4.20
2023-04-02T08:34:04.580Z,3.93
2023-04-02T08:36:35.615Z,3.50
2023-04-02T08:39:04.498Z,3.87
2023-04-02T08:41:38.813Z,4.30
2023-04-02T08:44:23.602Z,3.97
2023-04-02T08:46:55.721Z,4.67
2023-04-02T08:49:30.264Z,3.77
2023-04-02T08:51:58.082Z,3.90
2023-04-02T08:54:29.104Z,4.50
2023-04-02T08:56:59.466Z,4.93
2023-04-02T08:59:33.499Z,4.47
2023-04-02T09:02:08.269Z,3.97
2023-04-02T09:04:36.985Z,4.80
2023-04-02T09:07:05.074Z,4.93
2023-04-02T09:09:35.656Z,4.33
2023-04-02T09:12:04.376Z,4.67
2023-04-02T09:14:39.742Z,4.03
2023-04-02T09:17:16.475Z,5.50
2023-04-02T09:19:46.177Z,3.80
2023-04-02T09:22:20.831Z,4.10
2023-04-02T09:24:53.278Z,4.63
2023-04-02T09:27:23.509Z,4.37
2023-04-02T09:29:54.373Z,4.10
2023-04-02T09:32:28.957Z,3.83
2023-04-02T09:35:18.425Z,4.00
2023-04-02T09:38:12.989Z,3.60
2023-04-02T09:40:46.768Z,3.50
2023-04-02T09:43:16.410Z,6.00
2023-04-02T09:45:46.202Z,3.30
2023-04-02T09:48:22.724Z,3.43
2023-04-02T09:50:50.526Z,3.23
2023-04-02T09:53:29.678Z,2.80
2023-04-02T09:56:10.395Z,3.20
2023-04-02T09:58:38.296Z,3.40
2023-04-02T10:01:10.923Z,2.83
2023-04-02T10:03:38.809Z,3.73
2023-04-02T10:06:09.306Z,4.17
2023-04-02T10:08:38.453Z,3.10
2023-04-02T10:11:09.463Z,3.80
2023-04-02T10:13:44.528Z,4.93
2023-04-02T10:16:17.096Z,2.67
2023-04-02T10:18:48.209Z,2.33
2023-04-02T10:21:18.731Z,3.63
2023-04-02T10:23:46.557Z,3.30
2023-04-02T10:26:42.174Z,2.67
2023-04-02T10:29:30.925Z,2.50
2023-04-02T10:32:06.688Z,3.37
2023-04-02T10:34:38.873Z,3.10
2023-04-02T10:37:18.910Z,3.00
2023-04-02T10:39:48.948Z,3.20
2023-04-02T10:42:22.798Z,3.03
2023-04-02T10:44:55.467Z,3.20
2023-04-02T10:47:33.864Z,2.90
2023-04-02T10:50:11.348Z,3.90
2023-04-02T10:52:40.925Z,3.57
2023-04-02T10:55:16.546Z,4.07
2023-04-02T10:57:45.546Z,2.67
2023-04-02T11:00:20.582Z,4.07
2023-04-02T11:02:53.586Z,2.93
2023-04-02T11:05:26.680Z,2.30
2023-04-02T11:07:58.594Z,2.87
2023-04-02T11:10:28.853Z,2.47
2023-04-02T11:12:59.532Z,2.70
2023-04-02T11:15:28.821Z,3.57
2023-04-02T11:17:58.059Z,2.93
2023-04-02T11:20:59.933Z,2.13
2023-04-02T11:23:30.399Z,2.53
2023-04-02T11:26:38.897Z,1.87
2023-04-02T11:29:15.800Z,1.77
2023-04-02T11:31:44.143Z,1.87
2023-04-02T11:34:16.528Z,1.70
2023-04-02T11:37:07.710Z,2.33
2023-04-02T11:39:55.319Z,1.30
2023-04-02T11:42:31.490Z,1.33
2023-04-02T11:45:51.843Z,1.50
2023-04-02T11:48:33.906Z,1.83
2023-04-02T11:51:04.814Z,1.80
2023-04-02T11:53:35.822Z,1.57
2023-04-02T11:56:09.389Z,2.27
2023-04-02T11:58:46.804Z,1.40
2023-04-02T12:01:36.194Z,1.47
2023-04-02T12:04:36.725Z,1.37
2023-04-02T12:07:21.471Z,1.40
2023-04-02T12:09:51.114Z,1.73
2023-04-02T12:12:24.301Z,2.10
2023-04-02T12:14:53.181Z,1.73
2023-04-02T12:17:30.680Z,1.63
2023-04-02T12:20:04.360Z,1.50
2023-04-02T12:22:34.358Z,1.20
2023-04-02T12:25:04.548Z,2.13
2023-04-02T12:27:32.366Z,2.23
2023-04-02T12:30:13.820Z,1.33
2023-04-02T12:32:43.362Z,1.50
2023-04-02T12:35:30.325Z,2.07
2023-04-02T12:37:58.274Z,1.30
2023-04-02T12:40:27.220Z,1.23
2023-04-02T12:42:55.177Z,1.40
2023-04-02T12:45:27.119Z,1.40
2023-04-02T12:47:56.663Z,2.50
2023-04-02T12:50:26.214Z,2.07
2023-04-02T12:52:55.175Z,1.70
2023-04-02T12:55:24.377Z,2.07
2023-04-02T12:57:56.781Z,2.13
2023-04-02T13:00:36.023Z,1.30
2023-04-02T13:03:20.661Z,1.73
2023-04-02T13:05:53.405Z,2.13
2023-04-02T13:08:24.598Z,1.40
2023-04-02T13:10:57.738Z,1.97
2023-04-02T13:13:30.154Z,1.77
2023-04-02T13:16:16.664Z,1.37
2023-04-02T13:18:48.734Z,1.40
2023-04-02T13:21:28.737Z,1.10
2023-04-02T13:23:56.845Z,1.10
2023-04-02T13:26:25.841Z,1.00
2023-04-02T13:28:58.083Z,1.47
2023-04-02T13:31:25.884Z,0.73
2023-04-02T13:33:53.786Z,2.13
2023-04-02T13:36:21.845Z,0.87
2023-04-02T13:38:51.281Z,0.80
2023-04-02T13:41:22.529Z,1.20
2023-04-02T13:43:50.879Z,1.00
2023-04-02T13:46:22.680Z,1.20
2023-04-02T13:48:52.277Z,1.20
2023-04-02T13:51:21.946Z,1.10
2023-04-02T13:53:52.776Z,1.07
2023-04-02T13:56:22.895Z,0.80
2023-04-02T13:58:52.298Z,1.10
2023-04-02T14:01:21.584Z,0.90
2023-04-02T14:03:49.557Z,1.20
2023-04-02T14:06:23.081Z,0.83
2023-04-02T14:08:59.905Z,1.10
2023-04-02T14:11:37.182Z,1.30
2023-04-02T14:14:20.377Z,1.37
2023-04-02T14:16:59.701Z,1.10
2023-04-02T14:19:40.403Z,1.30
2023-04-02T14:22:15.821Z,2.10
2023-04-02T14:24:53.366Z,1.00
2023-04-02T14:27:27.692Z,0.80
2023-04-02T14:30:00.832Z,0.63
2023-04-02T14:32:34.508Z,0.70
2023-04-02T14:35:08.095Z,1.03
2023-04-02T14:37:41.154Z,1.47
2023-04-02T14:40:18.419Z,1.30
2023-04-02T14:42:50.728Z,2.07
2023-04-02T14:45:23.777Z,1.07
2023-04-02T14:47:54.407Z,1.40
2023-04-02T14:50:27.843Z,1.20
2023-04-02T14:52:58.797Z,0.80
2023-04-02T14:55:35.933Z,1.00
2023-04-02T14:58:05.762Z,1.03
2023-04-02T15:00:37.749Z,1.10
2023-04-02T15:03:10.123Z,0.83
2023-04-02T15:05:42.806Z,1.40
2023-04-02T15:08:19.336Z,1.20
2023-04-02T15:10:58.661Z,1.17
2023-04-02T15:13:32.628Z,0.80
2023-04-02T15:16:11.482Z,1.40
2023-04-02T15:18:40.156Z,1.43
2023-04-02T15:21:29.428Z,3.07
2023-04-02T15:24:01.961Z,3.17
2023-04-02T15:26:37.641Z,4.13
2023-04-02T15:29:25.799Z,3.10
2023-04-02T15:32:03.191Z,2.53
2023-04-02T15:34:34.795Z,1.87
2023-04-02T15:37:09.433Z,2.67
2023-04-02T15:39:44.191Z,2.53
2023-04-02T15:42:20.456Z,2.10
2023-04-02T15:45:15.688Z,2.17
2023-04-02T15:47:50.939Z,1.70
2023-04-02T15:50:34.503Z,2.30
2023-04-02T15:53:11.063Z,2.10
2023-04-02T15:55:42.081Z,2.73
2023-04-02T15:58:21.844Z,2.90
2023-04-02T16:00:53.238Z,3.33
2023-04-02T16:03:29.133Z,2.90
2023-04-02T16:06:16.897Z,5.43
2023-04-02T16:08:54.353Z,3.60
2023-04-02T16:11:24.562Z,3.20
2023-04-02T16:13:55.392Z,2.83
2023-04-02T16:16:26.937Z,3.00
2023-04-02T16:18:56.835Z,3.50
2023-04-02T16:21:27.215Z,3.83
2023-04-02T16:23:55.049Z,2.63
2023-04-02T16:26:34.576Z,3.30
2023-04-02T16:29:13.723Z,2.43
2023-04-02T16:31:47.482Z,2.60
2023-04-02T16:34:21.499Z,3.83
2023-04-02T16:36:54.841Z,3.37
2023-04-02T16:39:32.034Z,2.27
2023-04-02T16:42:05.896Z,3.27
2023-04-02T16:44:45.013Z,2.83
2023-04-02T16:47:23.498Z,2.13
2023-04-02T16:49:56.075Z,2.90
2023-04-02T16:52:33.946Z,2.30
2023-04-02T16:55:11.755Z,3.90
2023-04-02T16:57:44.732Z,2.43
2023-04-02T17:00:19.491Z,3.90
2023-04-02T17:02:56.001Z,3.87
2023-04-02T17:05:34.048Z,3.97
2023-04-02T17:08:12.482Z,2.53
2023-04-02T17:10:48.880Z,3.10
2023-04-02T17:13:21.228Z,2.37
2023-04-02T17:15:52.259Z,2.57
2023-04-02T17:18:21.518Z,3.47
2023-04-02T17:20:49.589Z,3.90
2023-04-02T17:23:18.696Z,2.60
2023-04-02T17:25:50.516Z,3.27
2023-04-02T17:28:25.229Z,3.20
2023-04-02T17:30:56.986Z,3.77
2023-04-02T17:33:27.140Z,4.33
2023-04-02T17:36:06.017Z,4.17
2023-04-02T17:38:38.842Z,3.13
2023-04-02T17:41:11.094Z,3.60
2023-04-02T17:43:46.381Z,2.90
2023-04-02T17:46:23.628Z,2.60
2023-04-02T17:48:58.063Z,2.37
2023-04-02T17:51:33.250Z,4.20
2023-04-02T17:54:08.533Z,1.97
2023-04-02T17:56:47.423Z,2.10
2023-04-02T17:59:27.124Z,4.33
2023-04-02T18:02:05.994Z,3.67
2023-04-02T18:04:39.622Z,2.43
2023-04-02T18:07:19.608Z,2.30
2023-04-02T18:09:49.521Z,2.10
2023-04-02T18:12:29.387Z,2.50
2023-04-02T18:15:08.182Z,3.33
2023-04-02T18:17:46.113Z,3.03
2023-04-02T18:20:22.002Z,2.67
2023-04-02T18:22:54.460Z,3.37
2023-04-02T18:25:31.087Z,2.50
2023-04-02T18:28:07.817Z,2.67
2023-04-02T18:30:37.747Z,1.70
2023-04-02T18:33:20.798Z,2.30
2023-04-02T18:35:54.831Z,2.40
2023-04-02T18:38:29.901Z,3.03
2023-04-02T18:41:04.522Z,2.13
2023-04-02T18:43:42.285Z,1.80
2023-04-02T18:46:17.204Z,3.27
2023-04-02T18:48:53.699Z,2.10
2023-04-02T18:51:23.336Z,2.37
2023-04-02T18:53:56.818Z,3.03
2023-04-02T18:56:25.804Z,4.90
2023-04-02T18:58:59.442Z,3.73
2023-04-02T19:01:31.759Z,4.00
2023-04-02T19:04:04.927Z,4.27
2023-04-02T19:06:37.394Z,2.77
2023-04-02T19:09:08.568Z,3.33
2023-04-02T19:11:36.401Z,2.60
2023-04-02T19:14:08.594Z,3.40
2023-04-02T19:16:59.204Z,2.60
2023-04-02T19:19:30.811Z,2.80
2023-04-02T19:22:18.069Z,2.93
2023-04-02T19:25:01.386Z,2.73
2023-04-02T19:27:33.427Z,2.83
2023-04-02T19:30:09.377Z,3.00
2023-04-02T19:32:42.531Z,2.90
2023-04-02T19:35:19.269Z,3.87
2023-04-02T19:37:56.197Z,3.07
2023-04-02T19:40:40.442Z,2.70
2023-04-02T19:43:08.408Z,2.40
2023-04-02T19:45:38.829Z,2.93
2023-04-02T19:48:12.962Z,2.50
2023-04-02T19:50:42.541Z,2.90
2023-04-02T19:53:10.506Z,2.73
2023-04-02T19:55:38.506Z,2.50
2023-04-02T19:58:17.607Z,3.80
2023-04-02T20:00:47.497Z,2.97
2023-04-02T20:03:15.439Z,2.80
2023-04-02T20:05:44.653Z,3.40
2023-04-02T20:08:13.809Z,2.40
2023-04-02T20:10:41.970Z,3.90
2023-04-02T20:13:10.172Z,3.67
2023-04-02T20:15:40.209Z,3.53
2023-04-02T20:18:09.264Z,3.93
2023-04-02T20:20:39.300Z,3.90
2023-04-02T20:23:08.618Z,4.00
2023-04-02T20:25:36.679Z,3.73
2023-04-02T20:28:04.724Z,4.10
2023-04-02T20:30:32.909Z,3.73
2023-04-02T20:33:01.110Z,4.33
2023-04-02T20:35:29.722Z,3.23
2023-04-02T20:37:57.682Z,3.33
2023-04-02T20:40:28.776Z,3.27
2023-04-02T20:42:56.937Z,3.10
2023-04-02T20:45:27.781Z,3.30
2023-04-02T20:47:57.885Z,3.30
2023-04-02T20:50:25.974Z,3.77
2023-04-02T20:52:55.061Z,4.37
2023-04-02T20:55:23.249Z,5.60
2023-04-02T20:57:52.383Z,3.80
2023-04-02T21:00:20.988Z,3.43
2023-04-02T21:02:48.757Z,3.70
2023-04-02T21:05:16.672Z,3.00
2023-04-02T21:07:44.353Z,3.33
2023-04-02T21:10:12.223Z,2.93
2023-04-02T21:12:40.392Z,3.03
2023-04-02T21:15:12.028Z,2.20
2023-04-02T21:17:39.881Z,2.67
2023-04-02T21:20:10.693Z,2.93
2023-04-02T21:22:39.095Z,2.50
2023-04-02T21:25:07.794Z,3.70
2023-04-02T21:27:35.886Z,2.63
2023-04-02T21:30:03.769Z,2.87
2023-04-02T21:32:33.687Z,2.70
2023-04-02T21:35:01.538Z,2.87
2023-04-02T21:37:29.388Z,2.90
2023-04-02T21:39:57.460Z,2.90
2023-04-02T21:42:25.863Z,2.87
2023-04-02T21:44:53.750Z,2.63
2023-04-02T21:47:21.637Z,3.17
2023-04-02T21:49:50.939Z,3.23
2023-04-02T21:52:18.664Z,2.87
2023-04-02T21:54:46.485Z,3.03
2023-04-02T21:57:14.276Z,4.07
2023-04-02T21:59:42.048Z,3.47
2023-04-02T22:02:09.945Z,3.30
2023-04-02T22:04:37.805Z,3.23
2023-04-02T22:07:06.949Z,3.27
2023-04-02T22:09:34.760Z,2.67
2023-04-02T22:12:02.556Z,2.73
2023-04-02T22:14:30.768Z,2.43
2023-04-02T22:16:59.412Z,2.50
2023-04-02T22:19:28.129Z,2.30
2023-04-02T22:21:56.477Z,2.43
2023-04-02T22:24:25.964Z,2.93
2023-04-02T22:26:53.782Z,2.43
2023-04-02T22:29:21.718Z,2.50
2023-04-02T22:31:49.483Z,3.37
2023-04-02T22:34:17.260Z,2.80
2023-04-02T22:36:45.058Z,3.43
2023-04-02T22:39:13.535Z,2.80
2023-04-02T22:41:42.807Z,2.87
2023-04-02T22:44:14.554Z,2.63
2023-04-02T22:46:42.462Z,2.70
2023-04-02T22:49:11.049Z,2.90
2023-04-02T22:51:38.808Z,2.47
2023-04-02T22:54:06.949Z,3.57
2023-04-02T22:56:35.360Z,2.50
2023-04-02T22:59:04.720Z,2.90
2023-04-02T23:01:34.617Z,2.17
2023-04-02T23:04:04.895Z,1.90
2023-04-02T23:06:33.168Z,2.10
2023-04-02T23:09:00.907Z,2.20
2023-04-02T23:11:29.054Z,1.90
2023-04-02T23:13:58.168Z,2.50
2023-04-02T23:16:28.980Z,2.30
2023-04-02T23:18:57.685Z,2.20
2023-04-02T23:21:26.700Z,2.10
2023-04-02T23:23:54.437Z,2.37
2023-04-02T23:26:24.233Z,2.00
2023-04-02T23:28:52.391Z,2.40
2023-04-02T23:31:22.927Z,2.00
2023-04-02T23:33:52.937Z,2.27
2023-04-02T23:36:22.653Z,2.07
2023-04-02T23:38:55.098Z,2.23
2023-04-02T23:41:24.479Z,2.07
2023-04-02T23:43:52.340Z,4.70
2023-04-02T23:46:20.587Z,2.10
2023-04-02T23:48:50.528Z,2.53
2023-04-02T23:51:20.095Z,2.30
2023-04-02T23:53:48.019Z,2.60
2023-04-02T23:56:15.833Z,3.00
2023-04-02T23:58:43.859Z,2.40
